Accueil
METAR-TAF:

METAR-TAF

Aéroports :

Lleida, Espagne

Lleida-Alguaire

latitude: 41-43-40N, longitude: 000-32-09E, altitude: 350 m

Observation

Le bulletin a été fait il y a 12 minutes, à 05:00 UTC
Vent calme
Température 0°C
Humidité 100%
Pression 1022 hPa
Visibilité 10 km ou plus
Quelques nuages à une hauteur de 6000 ft

METAR: LEDA 180500Z 00000KT 9999 FEW060 00/00 Q1022

Heure: 06:12 (05:12 UTC)

Prévision

Le bulletin a été fait il y a 3 heures et 12 minutes, à 02:00 UTC
Prévision valable du 18 à 03 UTC au 19 à 03 UTC
Vent 4 kt de direction variable
Visibilité 10 km ou plus
Quelques nuages à une hauteur de 4000 ft
Probabilité 30% :
Temporairement
du 18 à 04 UTC au 18 à 09 UTC
Visibilité: 3000 m
brume

TAF: LEDA 180200Z 1803/1903 VRB04KT 9999 FEW040 TX14/1814Z TN01/1806Z PROB30 TEMPO 1804/1809 3000 BR

Observations et prévisions météorologiques de plus de 4000 aéroports (messages METAR et TAF).

Les stations disponibles sont représentées par des disques jaunes et rouges sur la carte.

Passer la souris dessus pour voir le nom de la station.

Cliquer dessus pour voir les observations et prévisions météorologiques.

Pour changer de carte: cliquez sur les boutons verts avec une croix noire pour zoomer, sur le bouton vert avec un tiret pour effectuer un zoom arrière, ou sur les flèches vertes pour les cartes adjacentes.


METAR-TAF: